sensor_id;sensor_type;location;lat;lon;timestamp;temperature;humidity
15717;DHT22;7960;50.908;4.204;2023-04-08T00:01:09;9.30;99.90
15717;DHT22;7960;50.908;4.204;2023-04-08T00:03:36;9.20;99.90
15717;DHT22;7960;50.908;4.204;2023-04-08T00:06:03;9.20;99.90
15717;DHT22;7960;50.908;4.204;2023-04-08T00:08:30;9.10;99.90
15717;DHT22;7960;50.908;4.204;2023-04-08T00:10:57;9.30;99.90
15717;DHT22;7960;50.908;4.204;2023-04-08T00:13:24;9.30;99.90
15717;DHT22;7960;50.908;4.204;2023-04-08T00:15:53;9.20;99.90
15717;DHT22;7960;50.908;4.204;2023-04-08T00:18:19;9.20;99.90
15717;DHT22;7960;50.908;4.204;2023-04-08T00:20:46;9.20;99.90
15717;DHT22;7960;50.908;4.204;2023-04-08T00:23:13;9.20;99.90
15717;DHT22;7960;50.908;4.204;2023-04-08T00:25:40;9.30;99.90
15717;DHT22;7960;50.908;4.204;2023-04-08T00:28:07;9.40;99.90
15717;DHT22;7960;50.908;4.204;2023-04-08T00:30:34;9.40;99.90
15717;DHT22;7960;50.908;4.204;2023-04-08T00:33:02;9.50;99.90
15717;DHT22;7960;50.908;4.204;2023-04-08T00:35:29;9.50;99.90
15717;DHT22;7960;50.908;4.204;2023-04-08T00:37:56;9.50;99.90
15717;DHT22;7960;50.908;4.204;2023-04-08T00:40:23;9.50;99.90
15717;DHT22;7960;50.908;4.204;2023-04-08T00:42:50;9.50;99.90
15717;DHT22;7960;50.908;4.204;2023-04-08T00:45:17;9.40;99.90
15717;DHT22;7960;50.908;4.204;2023-04-08T00:47:44;9.20;99.90
15717;DHT22;7960;50.908;4.204;2023-04-08T00:50:12;9.30;99.90
15717;DHT22;7960;50.908;4.204;2023-04-08T00:52:39;9.20;99.90
15717;DHT22;7960;50.908;4.204;2023-04-08T00:55:06;9.10;99.90
15717;DHT22;7960;50.908;4.204;2023-04-08T00:57:33;9.10;99.90
15717;DHT22;7960;50.908;4.204;2023-04-08T01:00:02;9.10;99.90
15717;DHT22;7960;50.908;4.204;2023-04-08T01:02:41;9.20;99.90
15717;DHT22;7960;50.908;4.204;2023-04-08T01:05:17;9.30;99.90
15717;DHT22;7960;50.908;4.204;2023-04-08T01:07:47;9.20;99.90
15717;DHT22;7960;50.908;4.204;2023-04-08T01:10:17;9.30;99.90
15717;DHT22;7960;50.908;4.204;2023-04-08T01:12:49;9.20;99.90
15717;DHT22;7960;50.908;4.204;2023-04-08T01:15:17;9.20;99.90
15717;DHT22;7960;50.908;4.204;2023-04-08T01:17:45;9.20;99.90
15717;DHT22;7960;50.908;4.204;2023-04-08T01:20:13;9.10;99.90
15717;DHT22;7960;50.908;4.204;2023-04-08T01:23:01;9.00;99.90
15717;DHT22;7960;50.908;4.204;2023-04-08T01:25:31;9.10;99.90
15717;DHT22;7960;50.908;4.204;2023-04-08T01:28:00;8.80;99.90
15717;DHT22;7960;50.908;4.204;2023-04-08T01:30:28;8.90;99.90
15717;DHT22;7960;50.908;4.204;2023-04-08T01:32:57;9.00;99.90
15717;DHT22;7960;50.908;4.204;2023-04-08T01:35:25;8.90;99.90
15717;DHT22;7960;50.908;4.204;2023-04-08T01:37:52;9.10;99.90
15717;DHT22;7960;50.908;4.204;2023-04-08T01:40:20;9.00;99.90
15717;DHT22;7960;50.908;4.204;2023-04-08T01:42:47;9.20;99.90
15717;DHT22;7960;50.908;4.204;2023-04-08T01:45:17;9.20;99.90
15717;DHT22;7960;50.908;4.204;2023-04-08T01:47:44;9.00;99.90
15717;DHT22;7960;50.908;4.204;2023-04-08T01:50:13;9.10;99.90
15717;DHT22;7960;50.908;4.204;2023-04-08T01:52:43;9.20;99.90
15717;DHT22;7960;50.908;4.204;2023-04-08T01:55:10;9.10;99.90
15717;DHT22;7960;50.908;4.204;2023-04-08T01:57:37;9.00;99.90
15717;DHT22;7960;50.908;4.204;2023-04-08T02:00:07;8.90;99.90
15717;DHT22;7960;50.908;4.204;2023-04-08T02:02:37;8.80;99.90
15717;DHT22;7960;50.908;4.204;2023-04-08T02:05:06;8.80;99.90
15717;DHT22;7960;50.908;4.204;2023-04-08T02:07:33;8.90;99.90
15717;DHT22;7960;50.908;4.204;2023-04-08T02:10:01;8.80;99.90
15717;DHT22;7960;50.908;4.204;2023-04-08T02:12:28;8.90;99.90
15717;DHT22;7960;50.908;4.204;2023-04-08T02:14:55;9.00;99.90
15717;DHT22;7960;50.908;4.204;2023-04-08T02:17:27;9.00;99.90
15717;DHT22;7960;50.908;4.204;2023-04-08T02:20:02;9.00;99.90
15717;DHT22;7960;50.908;4.204;2023-04-08T02:22:37;9.00;99.90
15717;DHT22;7960;50.908;4.204;2023-04-08T02:25:08;9.00;99.90
15717;DHT22;7960;50.908;4.204;2023-04-08T02:27:38;9.00;99.90
15717;DHT22;7960;50.908;4.204;2023-04-08T02:30:07;8.90;99.90
15717;DHT22;7960;50.908;4.204;2023-04-08T02:32:36;9.00;99.90
15717;DHT22;7960;50.908;4.204;2023-04-08T02:35:05;8.80;99.90
15717;DHT22;7960;50.908;4.204;2023-04-08T02:37:32;8.90;99.90
15717;DHT22;7960;50.908;4.204;2023-04-08T02:39:59;8.90;99.90
15717;DHT22;7960;50.908;4.204;2023-04-08T02:42:26;8.90;99.90
15717;DHT22;7960;50.908;4.204;2023-04-08T02:44:53;8.90;99.90
15717;DHT22;7960;50.908;4.204;2023-04-08T02:47:20;9.00;99.90
15717;DHT22;7960;50.908;4.204;2023-04-08T02:49:47;9.00;99.90
15717;DHT22;7960;50.908;4.204;2023-04-08T02:52:18;9.00;99.90
15717;DHT22;7960;50.908;4.204;2023-04-08T02:54:45;9.00;99.90
15717;DHT22;7960;50.908;4.204;2023-04-08T02:57:12;9.10;99.90
15717;DHT22;7960;50.908;4.204;2023-04-08T02:59:39;8.90;99.90
15717;DHT22;7960;50.908;4.204;2023-04-08T03:02:05;8.90;99.90
15717;DHT22;7960;50.908;4.204;2023-04-08T03:04:32;8.90;99.90
15717;DHT22;7960;50.908;4.204;2023-04-08T03:06:59;8.90;99.90
15717;DHT22;7960;50.908;4.204;2023-04-08T03:09:27;8.90;99.90
15717;DHT22;7960;50.908;4.204;2023-04-08T03:11:54;8.90;99.90
15717;DHT22;7960;50.908;4.204;2023-04-08T03:14:21;9.10;99.90
15717;DHT22;7960;50.908;4.204;2023-04-08T03:16:48;9.10;99.90
15717;DHT22;7960;50.908;4.204;2023-04-08T03:19:15;9.00;99.90
15717;DHT22;7960;50.908;4.204;2023-04-08T03:21:42;9.00;99.90
15717;DHT22;7960;50.908;4.204;2023-04-08T03:24:08;9.00;99.90
15717;DHT22;7960;50.908;4.204;2023-04-08T03:26:37;9.10;99.90
15717;DHT22;7960;50.908;4.204;2023-04-08T03:29:04;9.10;99.90
15717;DHT22;7960;50.908;4.204;2023-04-08T03:31:31;9.00;99.90
15717;DHT22;7960;50.908;4.204;2023-04-08T03:33:58;9.00;99.90
15717;DHT22;7960;50.908;4.204;2023-04-08T03:36:25;9.00;99.90
15717;DHT22;7960;50.908;4.204;2023-04-08T03:38:52;9.00;99.90
15717;DHT22;7960;50.908;4.204;2023-04-08T03:41:19;9.00;99.90
15717;DHT22;7960;50.908;4.204;2023-04-08T03:43:48;9.10;99.90
15717;DHT22;7960;50.908;4.204;2023-04-08T03:46:14;9.10;99.90
15717;DHT22;7960;50.908;4.204;2023-04-08T03:48:41;9.00;99.90
15717;DHT22;7960;50.908;4.204;2023-04-08T03:51:08;9.10;99.90
15717;DHT22;7960;50.908;4.204;2023-04-08T03:53:35;9.00;99.90
15717;DHT22;7960;50.908;4.204;2023-04-08T03:56:02;9.00;99.90
15717;DHT22;7960;50.908;4.204;2023-04-08T03:58:29;9.00;99.90
15717;DHT22;7960;50.908;4.204;2023-04-08T04:00:57;9.00;99.90
15717;DHT22;7960;50.908;4.204;2023-04-08T04:03:25;9.10;99.90
15717;DHT22;7960;50.908;4.204;2023-04-08T04:05:51;9.10;99.90
15717;DHT22;7960;50.908;4.204;2023-04-08T04:08:18;8.90;99.90
15717;DHT22;7960;50.908;4.204;2023-04-08T04:10:45;8.90;99.90
15717;DHT22;7960;50.908;4.204;2023-04-08T04:13:12;8.90;99.90
15717;DHT22;7960;50.908;4.204;2023-04-08T04:15:39;8.80;99.90
15717;DHT22;7960;50.908;4.204;2023-04-08T04:18:07;8.80;99.90
15717;DHT22;7960;50.908;4.204;2023-04-08T04:20:34;8.80;99.90
15717;DHT22;7960;50.908;4.204;2023-04-08T04:23:02;8.90;99.90
15717;DHT22;7960;50.908;4.204;2023-04-08T04:25:29;9.00;99.90
15717;DHT22;7960;50.908;4.204;2023-04-08T04:27:56;9.00;99.90
15717;DHT22;7960;50.908;4.204;2023-04-08T04:30:23;8.90;99.90
15717;DHT22;7960;50.908;4.204;2023-04-08T04:32:50;8.90;99.90
15717;DHT22;7960;50.908;4.204;2023-04-08T04:35:18;8.80;99.90
15717;DHT22;7960;50.908;4.204;2023-04-08T04:37:45;8.80;99.90
15717;DHT22;7960;50.908;4.204;2023-04-08T04:40:14;8.80;99.90
15717;DHT22;7960;50.908;4.204;2023-04-08T04:42:41;8.90;99.90
15717;DHT22;7960;50.908;4.204;2023-04-08T04:45:09;8.90;99.90
15717;DHT22;7960;50.908;4.204;2023-04-08T04:47:36;8.80;99.90
15717;DHT22;7960;50.908;4.204;2023-04-08T04:50:03;8.70;99.90
15717;DHT22;7960;50.908;4.204;2023-04-08T04:52:32;8.90;99.90
15717;DHT22;7960;50.908;4.204;2023-04-08T04:54:58;8.90;99.90
15717;DHT22;7960;50.908;4.204;2023-04-08T04:57:25;9.00;99.90
15717;DHT22;7960;50.908;4.204;2023-04-08T04:59:52;8.90;99.90
15717;DHT22;7960;50.908;4.204;2023-04-08T05:02:19;8.80;99.90
15717;DHT22;7960;50.908;4.204;2023-04-08T05:04:46;8.90;99.90
15717;DHT22;7960;50.908;4.204;2023-04-08T05:07:13;8.90;99.90
15717;DHT22;7960;50.908;4.204;2023-04-08T05:09:41;8.90;99.90
15717;DHT22;7960;50.908;4.204;2023-04-08T05:12:07;8.80;99.90
15717;DHT22;7960;50.908;4.204;2023-04-08T05:14:34;8.70;99.90
15717;DHT22;7960;50.908;4.204;2023-04-08T05:17:01;8.70;99.90
15717;DHT22;7960;50.908;4.204;2023-04-08T05:19:30;8.70;99.90
15717;DHT22;7960;50.908;4.204;2023-04-08T05:21:57;8.60;99.90
15717;DHT22;7960;50.908;4.204;2023-04-08T05:24:23;8.70;99.90
15717;DHT22;7960;50.908;4.204;2023-04-08T05:26:52;8.70;99.90
15717;DHT22;7960;50.908;4.204;2023-04-08T05:29:18;8.70;99.90
15717;DHT22;7960;50.908;4.204;2023-04-08T05:31:46;8.80;99.90
15717;DHT22;7960;50.908;4.204;2023-04-08T05:34:13;8.80;99.90
15717;DHT22;7960;50.908;4.204;2023-04-08T05:36:40;8.80;99.90
15717;DHT22;7960;50.908;4.204;2023-04-08T05:39:07;8.90;99.90
15717;DHT22;7960;50.908;4.204;2023-04-08T05:41:33;8.90;99.90
15717;DHT22;7960;50.908;4.204;2023-04-08T05:44:02;8.90;99.90
15717;DHT22;7960;50.908;4.204;2023-04-08T05:46:28;9.00;99.90
15717;DHT22;7960;50.908;4.204;2023-04-08T05:48:55;8.90;99.90
15717;DHT22;7960;50.908;4.204;2023-04-08T05:51:22;9.00;99.90
15717;DHT22;7960;50.908;4.204;2023-04-08T05:53:49;9.00;99.90
15717;DHT22;7960;50.908;4.204;2023-04-08T05:56:16;9.00;99.90
15717;DHT22;7960;50.908;4.204;2023-04-08T05:58:42;8.90;99.90
15717;DHT22;7960;50.908;4.204;2023-04-08T06:01:10;8.80;99.90
15717;DHT22;7960;50.908;4.204;2023-04-08T06:03:37;8.80;99.90
15717;DHT22;7960;50.908;4.204;2023-04-08T06:06:08;8.70;99.90
15717;DHT22;7960;50.908;4.204;2023-04-08T06:08:36;8.80;99.90
15717;DHT22;7960;50.908;4.204;2023-04-08T06:11:03;8.80;99.90
15717;DHT22;7960;50.908;4.204;2023-04-08T06:13:30;8.80;99.90
15717;DHT22;7960;50.908;4.204;2023-04-08T06:15:57;8.80;99.90
15717;DHT22;7960;50.908;4.204;2023-04-08T06:18:26;8.70;99.90
15717;DHT22;7960;50.908;4.204;2023-04-08T06:20:53;8.70;99.90
15717;DHT22;7960;50.908;4.204;2023-04-08T06:23:19;8.60;99.90
15717;DHT22;7960;50.908;4.204;2023-04-08T06:25:46;8.80;99.90
15717;DHT22;7960;50.908;4.204;2023-04-08T06:28:13;8.90;99.90
15717;DHT22;7960;50.908;4.204;2023-04-08T06:30:40;9.00;99.90
15717;DHT22;7960;50.908;4.204;2023-04-08T06:33:07;9.10;99.90
15717;DHT22;7960;50.908;4.204;2023-04-08T06:35:35;9.10;99.90
15717;DHT22;7960;50.908;4.204;2023-04-08T06:38:02;8.90;99.90
15717;DHT22;7960;50.908;4.204;2023-04-08T06:40:29;8.90;99.90
15717;DHT22;7960;50.908;4.204;2023-04-08T06:42:56;8.90;99.90
15717;DHT22;7960;50.908;4.204;2023-04-08T06:45:22;8.90;99.90
15717;DHT22;7960;50.908;4.204;2023-04-08T06:47:50;9.00;99.90
15717;DHT22;7960;50.908;4.204;2023-04-08T06:50:17;8.90;99.90
15717;DHT22;7960;50.908;4.204;2023-04-08T06:52:45;9.00;99.90
15717;DHT22;7960;50.908;4.204;2023-04-08T06:55:12;9.00;99.90
15717;DHT22;7960;50.908;4.204;2023-04-08T06:57:39;9.00;99.90
15717;DHT22;7960;50.908;4.204;2023-04-08T07:00:07;9.10;99.90
15717;DHT22;7960;50.908;4.204;2023-04-08T07:02:34;9.10;99.90
15717;DHT22;7960;50.908;4.204;2023-04-08T07:05:01;9.10;99.90
15717;DHT22;7960;50.908;4.204;2023-04-08T07:07:28;9.20;99.90
15717;DHT22;7960;50.908;4.204;2023-04-08T07:09:57;9.20;99.90
15717;DHT22;7960;50.908;4.204;2023-04-08T07:12:24;9.20;99.90
15717;DHT22;7960;50.908;4.204;2023-04-08T07:14:50;9.20;99.90
15717;DHT22;7960;50.908;4.204;2023-04-08T07:17:18;9.20;99.90
15717;DHT22;7960;50.908;4.204;2023-04-08T07:19:45;9.20;99.90
15717;DHT22;7960;50.908;4.204;2023-04-08T07:22:12;9.30;99.90
15717;DHT22;7960;50.908;4.204;2023-04-08T07:24:39;9.40;99.90
15717;DHT22;7960;50.908;4.204;2023-04-08T07:27:08;9.40;99.90
15717;DHT22;7960;50.908;4.204;2023-04-08T07:29:36;9.40;99.90
15717;DHT22;7960;50.908;4.204;2023-04-08T07:32:03;9.40;99.90
15717;DHT22;7960;50.908;4.204;2023-04-08T07:34:29;9.50;99.90
15717;DHT22;7960;50.908;4.204;2023-04-08T07:36:56;9.50;99.90
15717;DHT22;7960;50.908;4.204;2023-04-08T07:39:23;9.70;99.90
15717;DHT22;7960;50.908;4.204;2023-04-08T07:41:50;9.80;99.90
15717;DHT22;7960;50.908;4.204;2023-04-08T07:44:18;10.00;99.90
15717;DHT22;7960;50.908;4.204;2023-04-08T07:46:45;10.00;99.90
15717;DHT22;7960;50.908;4.204;2023-04-08T07:49:15;10.00;99.90
15717;DHT22;7960;50.908;4.204;2023-04-08T07:51:42;10.20;99.90
15717;DHT22;7960;50.908;4.204;2023-04-08T07:54:09;10.30;99.90
15717;DHT22;7960;50.908;4.204;2023-04-08T07:56:37;10.30;99.90
15717;DHT22;7960;50.908;4.204;2023-04-08T07:59:05;10.40;99.90
15717;DHT22;7960;50.908;4.204;2023-04-08T08:01:33;10.50;99.90
15717;DHT22;7960;50.908;4.204;2023-04-08T08:04:00;10.50;99.90
15717;DHT22;7960;50.908;4.204;2023-04-08T08:06:27;10.50;99.90
15717;DHT22;7960;50.908;4.204;2023-04-08T08:08:56;10.60;99.90
15717;DHT22;7960;50.908;4.204;2023-04-08T08:11:23;10.60;99.90
15717;DHT22;7960;50.908;4.204;2023-04-08T08:13:51;10.70;99.90
15717;DHT22;7960;50.908;4.204;2023-04-08T08:16:18;10.80;99.90
15717;DHT22;7960;50.908;4.204;2023-04-08T08:18:46;10.80;99.90
15717;DHT22;7960;50.908;4.204;2023-04-08T08:21:13;10.80;99.90
15717;DHT22;7960;50.908;4.204;2023-04-08T08:23:40;10.70;99.90
15717;DHT22;7960;50.908;4.204;2023-04-08T08:26:08;10.90;99.90
15717;DHT22;7960;50.908;4.204;2023-04-08T08:28:35;11.10;99.90
15717;DHT22;7960;50.908;4.204;2023-04-08T08:31:02;11.10;99.90
15717;DHT22;7960;50.908;4.204;2023-04-08T08:33:30;11.10;99.90
15717;DHT22;7960;50.908;4.204;2023-04-08T08:35:58;11.00;99.90
15717;DHT22;7960;50.908;4.204;2023-04-08T08:38:25;10.90;99.90
15717;DHT22;7960;50.908;4.204;2023-04-08T08:40:53;10.90;99.90
15717;DHT22;7960;50.908;4.204;2023-04-08T08:43:20;11.00;99.90
15717;DHT22;7960;50.908;4.204;2023-04-08T08:45:47;11.00;99.90
15717;DHT22;7960;50.908;4.204;2023-04-08T08:48:14;11.10;99.90
15717;DHT22;7960;50.908;4.204;2023-04-08T08:50:42;11.00;99.90
15717;DHT22;7960;50.908;4.204;2023-04-08T08:53:10;11.00;99.90
15717;DHT22;7960;50.908;4.204;2023-04-08T08:55:37;11.10;99.90
15717;DHT22;7960;50.908;4.204;2023-04-08T08:58:05;11.00;99.90
15717;DHT22;7960;50.908;4.204;2023-04-08T09:00:32;11.10;99.90
15717;DHT22;7960;50.908;4.204;2023-04-08T09:03:14;11.10;99.90
15717;DHT22;7960;50.908;4.204;2023-04-08T09:05:52;11.00;99.90
15717;DHT22;7960;50.908;4.204;2023-04-08T09:08:28;11.10;99.90
15717;DHT22;7960;50.908;4.204;2023-04-08T09:11:10;11.10;99.90
15717;DHT22;7960;50.908;4.204;2023-04-08T09:13:37;11.20;99.90
15717;DHT22;7960;50.908;4.204;2023-04-08T09:16:05;11.30;99.90
15717;DHT22;7960;50.908;4.204;2023-04-08T09:18:33;11.20;99.90
15717;DHT22;7960;50.908;4.204;2023-04-08T09:21:01;11.10;99.90
15717;DHT22;7960;50.908;4.204;2023-04-08T09:23:40;11.20;99.90
15717;DHT22;7960;50.908;4.204;2023-04-08T09:26:09;11.10;99.90
15717;DHT22;7960;50.908;4.204;2023-04-08T09:28:36;11.00;99.90
15717;DHT22;7960;50.908;4.204;2023-04-08T09:31:18;10.90;99.90
15717;DHT22;7960;50.908;4.204;2023-04-08T09:33:46;10.90;99.90
15717;DHT22;7960;50.908;4.204;2023-04-08T09:36:13;10.90;99.90
15717;DHT22;7960;50.908;4.204;2023-04-08T09:38:42;11.00;99.90
15717;DHT22;7960;50.908;4.204;2023-04-08T09:41:12;11.00;99.90
15717;DHT22;7960;50.908;4.204;2023-04-08T09:43:42;11.00;99.90
15717;DHT22;7960;50.908;4.204;2023-04-08T09:46:14;11.10;99.90
15717;DHT22;7960;50.908;4.204;2023-04-08T09:48:48;11.00;99.90
15717;DHT22;7960;50.908;4.204;2023-04-08T09:51:18;10.90;99.90
15717;DHT22;7960;50.908;4.204;2023-04-08T09:53:52;10.80;99.90
15717;DHT22;7960;50.908;4.204;2023-04-08T09:56:21;11.00;99.90
15717;DHT22;7960;50.908;4.204;2023-04-08T09:58:53;10.90;99.90
15717;DHT22;7960;50.908;4.204;2023-04-08T10:01:27;11.00;99.90
15717;DHT22;7960;50.908;4.204;2023-04-08T10:03:56;11.00;99.90
15717;DHT22;7960;50.908;4.204;2023-04-08T10:06:27;11.20;99.90
15717;DHT22;7960;50.908;4.204;2023-04-08T10:08:57;11.30;99.90
15717;DHT22;7960;50.908;4.204;2023-04-08T10:11:24;11.50;99.90
15717;DHT22;7960;50.908;4.204;2023-04-08T10:13:51;11.30;99.90
15717;DHT22;7960;50.908;4.204;2023-04-08T10:16:24;11.40;99.90
15717;DHT22;7960;50.908;4.204;2023-04-08T10:18:52;11.40;99.90
15717;DHT22;7960;50.908;4.204;2023-04-08T10:21:39;11.40;99.90
15717;DHT22;7960;50.908;4.204;2023-04-08T10:24:10;11.40;99.90
15717;DHT22;7960;50.908;4.204;2023-04-08T10:26:39;11.50;99.90
15717;DHT22;7960;50.908;4.204;2023-04-08T10:29:31;11.70;99.90
15717;DHT22;7960;50.908;4.204;2023-04-08T10:31:58;11.90;99.90
15717;DHT22;7960;50.908;4.204;2023-04-08T10:34:26;11.90;99.90
15717;DHT22;7960;50.908;4.204;2023-04-08T10:36:55;11.80;99.90
15717;DHT22;7960;50.908;4.204;2023-04-08T10:39:25;11.70;99.90
15717;DHT22;7960;50.908;4.204;2023-04-08T10:41:52;11.50;99.90
15717;DHT22;7960;50.908;4.204;2023-04-08T10:44:21;11.40;99.90
15717;DHT22;7960;50.908;4.204;2023-04-08T10:46:49;11.50;99.90
15717;DHT22;7960;50.908;4.204;2023-04-08T10:49:17;11.40;99.90
15717;DHT22;7960;50.908;4.204;2023-04-08T10:51:45;11.40;99.90
15717;DHT22;7960;50.908;4.204;2023-04-08T10:54:13;11.50;99.90
15717;DHT22;7960;50.908;4.204;2023-04-08T10:56:46;11.60;99.90
15717;DHT22;7960;50.908;4.204;2023-04-08T10:59:14;11.70;99.90
15717;DHT22;7960;50.908;4.204;2023-04-08T11:01:43;11.90;99.90
15717;DHT22;7960;50.908;4.204;2023-04-08T11:04:11;12.20;99.90
15717;DHT22;7960;50.908;4.204;2023-04-08T11:06:40;12.30;99.90
15717;DHT22;7960;50.908;4.204;2023-04-08T11:09:07;12.50;99.90
15717;DHT22;7960;50.908;4.204;2023-04-08T11:11:34;12.50;99.90
15717;DHT22;7960;50.908;4.204;2023-04-08T11:14:03;12.50;99.90
15717;DHT22;7960;50.908;4.204;2023-04-08T11:16:30;12.60;99.90
15717;DHT22;7960;50.908;4.204;2023-04-08T11:18:57;12.50;99.90
15717;DHT22;7960;50.908;4.204;2023-04-08T11:21:24;12.60;99.90
15717;DHT22;7960;50.908;4.204;2023-04-08T11:23:53;12.50;99.90
15717;DHT22;7960;50.908;4.204;2023-04-08T11:26:21;12.50;99.90
15717;DHT22;7960;50.908;4.204;2023-04-08T11:28:48;12.30;99.90
15717;DHT22;7960;50.908;4.204;2023-04-08T11:31:18;12.30;99.90
15717;DHT22;7960;50.908;4.204;2023-04-08T11:33:46;12.30;99.90
15717;DHT22;7960;50.908;4.204;2023-04-08T11:36:14;12.30;99.90
15717;DHT22;7960;50.908;4.204;2023-04-08T11:38:43;12.20;99.90
15717;DHT22;7960;50.908;4.204;2023-04-08T11:41:12;12.20;99.90
15717;DHT22;7960;50.908;4.204;2023-04-08T11:43:44;12.20;99.90
15717;DHT22;7960;50.908;4.204;2023-04-08T11:46:17;12.30;99.90
15717;DHT22;7960;50.908;4.204;2023-04-08T11:48:57;12.30;99.90
15717;DHT22;7960;50.908;4.204;2023-04-08T11:51:24;12.30;99.90
15717;DHT22;7960;50.908;4.204;2023-04-08T11:53:51;12.40;99.90
15717;DHT22;7960;50.908;4.204;2023-04-08T11:56:19;12.50;99.90
15717;DHT22;7960;50.908;4.204;2023-04-08T11:58:46;12.60;99.90
15717;DHT22;7960;50.908;4.204;2023-04-08T12:01:13;12.60;99.90
15717;DHT22;7960;50.908;4.204;2023-04-08T12:03:57;12.60;99.90
15717;DHT22;7960;50.908;4.204;2023-04-08T12:06:25;12.80;99.90
15717;DHT22;7960;50.908;4.204;2023-04-08T12:08:52;12.80;99.90
15717;DHT22;7960;50.908;4.204;2023-04-08T12:11:19;12.70;99.90
15717;DHT22;7960;50.908;4.204;2023-04-08T12:13:46;12.80;99.90
15717;DHT22;7960;50.908;4.204;2023-04-08T12:16:15;13.00;99.90
15717;DHT22;7960;50.908;4.204;2023-04-08T12:18:42;12.80;99.90
15717;DHT22;7960;50.908;4.204;2023-04-08T12:21:10;12.80;99.90
15717;DHT22;7960;50.908;4.204;2023-04-08T12:23:37;12.70;99.90
15717;DHT22;7960;50.908;4.204;2023-04-08T12:26:04;12.80;99.90
15717;DHT22;7960;50.908;4.204;2023-04-08T12:28:31;12.80;99.90
15717;DHT22;7960;50.908;4.204;2023-04-08T12:30:59;12.60;99.90
15717;DHT22;7960;50.908;4.204;2023-04-08T12:33:26;12.70;99.90
15717;DHT22;7960;50.908;4.204;2023-04-08T12:35:53;13.10;99.90
15717;DHT22;7960;50.908;4.204;2023-04-08T12:38:21;13.20;99.90
15717;DHT22;7960;50.908;4.204;2023-04-08T12:40:48;13.00;99.90
15717;DHT22;7960;50.908;4.204;2023-04-08T12:43:14;13.10;99.90
15717;DHT22;7960;50.908;4.204;2023-04-08T12:45:42;13.20;99.90
15717;DHT22;7960;50.908;4.204;2023-04-08T12:48:09;13.10;99.90
15717;DHT22;7960;50.908;4.204;2023-04-08T12:50:35;13.20;99.90
15717;DHT22;7960;50.908;4.204;2023-04-08T12:53:02;13.30;99.90
15717;DHT22;7960;50.908;4.204;2023-04-08T12:55:30;13.40;99.90
15717;DHT22;7960;50.908;4.204;2023-04-08T12:57:57;13.30;99.90
15717;DHT22;7960;50.908;4.204;2023-04-08T13:00:24;13.30;99.90
15717;DHT22;7960;50.908;4.204;2023-04-08T13:02:51;13.30;99.90
15717;DHT22;7960;50.908;4.204;2023-04-08T13:05:18;13.50;99.90
15717;DHT22;7960;50.908;4.204;2023-04-08T13:07:45;13.70;99.90
15717;DHT22;7960;50.908;4.204;2023-04-08T13:10:12;14.00;99.90
15717;DHT22;7960;50.908;4.204;2023-04-08T13:12:40;14.10;99.90
15717;DHT22;7960;50.908;4.204;2023-04-08T13:15:08;14.20;99.90
15717;DHT22;7960;50.908;4.204;2023-04-08T13:17:35;14.30;99.90
15717;DHT22;7960;50.908;4.204;2023-04-08T13:20:03;14.30;99.90
15717;DHT22;7960;50.908;4.204;2023-04-08T13:22:30;14.80;99.90
15717;DHT22;7960;50.908;4.204;2023-04-08T13:24:58;15.30;99.90
15717;DHT22;7960;50.908;4.204;2023-04-08T13:27:26;15.10;99.90
15717;DHT22;7960;50.908;4.204;2023-04-08T13:29:54;14.90;99.90
15717;DHT22;7960;50.908;4.204;2023-04-08T13:32:21;14.90;99.90
15717;DHT22;7960;50.908;4.204;2023-04-08T13:34:47;14.50;99.90
15717;DHT22;7960;50.908;4.204;2023-04-08T13:37:14;14.40;99.90
15717;DHT22;7960;50.908;4.204;2023-04-08T13:39:41;14.40;99.90
15717;DHT22;7960;50.908;4.204;2023-04-08T13:42:08;14.00;99.90
15717;DHT22;7960;50.908;4.204;2023-04-08T13:44:35;14.20;99.90
15717;DHT22;7960;50.908;4.204;2023-04-08T13:47:03;14.30;99.90
15717;DHT22;7960;50.908;4.204;2023-04-08T13:49:30;14.30;99.90
15717;DHT22;7960;50.908;4.204;2023-04-08T13:51:57;14.60;99.90
15717;DHT22;7960;50.908;4.204;2023-04-08T13:54:24;15.30;99.90
15717;DHT22;7960;50.908;4.204;2023-04-08T13:56:51;16.00;99.90
15717;DHT22;7960;50.908;4.204;2023-04-08T13:59:17;16.90;99.90
15717;DHT22;7960;50.908;4.204;2023-04-08T14:01:44;17.00;99.80
15717;DHT22;7960;50.908;4.204;2023-04-08T14:04:13;17.00;98.60
15717;DHT22;7960;50.908;4.204;2023-04-08T14:06:39;17.20;97.90
15717;DHT22;7960;50.908;4.204;2023-04-08T14:09:08;16.90;97.10
15717;DHT22;7960;50.908;4.204;2023-04-08T14:11:35;17.10;96.90
15717;DHT22;7960;50.908;4.204;2023-04-08T14:14:02;17.60;96.40
15717;DHT22;7960;50.908;4.204;2023-04-08T14:16:28;17.40;96.60
15717;DHT22;7960;50.908;4.204;2023-04-08T14:18:57;17.70;96.10
15717;DHT22;7960;50.908;4.204;2023-04-08T14:21:25;18.10;94.90
15717;DHT22;7960;50.908;4.204;2023-04-08T14:23:52;18.00;94.30
15717;DHT22;7960;50.908;4.204;2023-04-08T14:26:19;17.20;94.60
15717;DHT22;7960;50.908;4.204;2023-04-08T14:28:46;16.90;95.30
15717;DHT22;7960;50.908;4.204;2023-04-08T14:31:13;17.70;95.30
15717;DHT22;7960;50.908;4.204;2023-04-08T14:33:40;17.80;94.50
15717;DHT22;7960;50.908;4.204;2023-04-08T14:36:07;18.30;94.20
15717;DHT22;7960;50.908;4.204;2023-04-08T14:38:35;18.60;93.50
15717;DHT22;7960;50.908;4.204;2023-04-08T14:41:03;17.90;93.00
15717;DHT22;7960;50.908;4.204;2023-04-08T14:43:30;17.90;93.20
15717;DHT22;7960;50.908;4.204;2023-04-08T14:45:57;17.80;93.60
15717;DHT22;7960;50.908;4.204;2023-04-08T14:48:24;17.60;93.80
15717;DHT22;7960;50.908;4.204;2023-04-08T14:50:54;17.60;93.90
15717;DHT22;7960;50.908;4.204;2023-04-08T14:53:21;16.00;93.50
15717;DHT22;7960;50.908;4.204;2023-04-08T14:55:50;16.30;95.40
15717;DHT22;7960;50.908;4.204;2023-04-08T14:58:17;16.50;94.90
15717;DHT22;7960;50.908;4.204;2023-04-08T15:00:44;16.10;95.10
15717;DHT22;7960;50.908;4.204;2023-04-08T15:03:12;15.90;95.30
15717;DHT22;7960;50.908;4.204;2023-04-08T15:05:39;15.50;95.50
15717;DHT22;7960;50.908;4.204;2023-04-08T15:08:07;15.20;96.40
15717;DHT22;7960;50.908;4.204;2023-04-08T15:10:34;15.20;97.00
15717;DHT22;7960;50.908;4.204;2023-04-08T15:13:03;15.00;97.20
15717;DHT22;7960;50.908;4.204;2023-04-08T15:15:30;15.60;97.80
15717;DHT22;7960;50.908;4.204;2023-04-08T15:17:56;15.70;97.40
15717;DHT22;7960;50.908;4.204;2023-04-08T15:20:23;16.00;96.90
15717;DHT22;7960;50.908;4.204;2023-04-08T15:22:50;17.10;96.70
15717;DHT22;7960;50.908;4.204;2023-04-08T15:25:17;17.60;95.40
15717;DHT22;7960;50.908;4.204;2023-04-08T15:27:44;18.10;94.50
15717;DHT22;7960;50.908;4.204;2023-04-08T15:30:13;18.40;93.60
15717;DHT22;7960;50.908;4.204;2023-04-08T15:32:39;18.60;93.10
15717;DHT22;7960;50.908;4.204;2023-04-08T15:35:07;19.20;91.90
15717;DHT22;7960;50.908;4.204;2023-04-08T15:37:35;19.20;90.90
15717;DHT22;7960;50.908;4.204;2023-04-08T15:40:02;19.00;90.70
15717;DHT22;7960;50.908;4.204;2023-04-08T15:42:29;19.00;91.30
15717;DHT22;7960;50.908;4.204;2023-04-08T15:44:56;19.00;90.70
15717;DHT22;7960;50.908;4.204;2023-04-08T15:47:24;19.10;90.10
15717;DHT22;7960;50.908;4.204;2023-04-08T15:49:52;19.40;89.20
15717;DHT22;7960;50.908;4.204;2023-04-08T15:52:20;19.20;88.00
15717;DHT22;7960;50.908;4.204;2023-04-08T15:54:47;19.20;88.60
15717;DHT22;7960;50.908;4.204;2023-04-08T15:57:14;18.60;88.10
15717;DHT22;7960;50.908;4.204;2023-04-08T15:59:41;18.80;90.00